YYAS weather

Yass Airport
New South Wales, Australia

Public forecast

Using degrees Celsius for public forecast. Weather courtesy of forecast.io.

METAR (pilot weather report)

Closest report is Canberra International Airport, 29.6 nm (54.8 km) SSE. Retrieved 2019/03/26 04:00 UTC (3 minutes ago):

YSCB 260400Z AUTO 31013KT 9999 // NCD 21/M01 Q1016 NOSIG

TAF (pilot weather forecast)

Forecast is more than 12 hours old.

Closest forecast is Canberra International Airport, 29.6 nm (54.8 km) SSE. Retrieved 2019/03/25 00:00 UTC (1 day ago):

TAF YSCB 252313Z 2600/2624 30014KT CAVOK BECMG 2602/2604 27014KT CAVOK BECMG 2609/2611 11008KT CAVOK FM261400 VRB03KT CAVOK